Escuta Aérea – Aeroporto Internacional de Fortaleza

METAR: 

SBFZ 182300Z 10011KT 9999 SCT018 SCT090 27/24 Q1014

TAF: 

TAF TAF SBFZ 181500Z 1818/1918 08010KT 9999 FEW020 TN25/1908Z TX30/1915Z BECMG 1902/1904 15008KT BECMG 1910/1912 10012KT RMK PCH

A escuta poderá ser executada automaticamente